Time;durP1;ratioP1;P1;durP2;ratioP2;P2;SDS_P1;SDS_P2;PMS_P1;PMS_P2;Temp;Humidity;BMP_temperature;BMP_pressure;BME280_temperature;BME280_humidity;BME280_pressure;Samples;Min_cycle;Max_cycle;Signal;HPM_P1;HPM_P2
2023/01/15 00:01:58;;;;;;;0.87;0.63;;;;;;;3.71;100.00;99838.16;5111202;28;20201;-61
2023/01/15 00:04:25;;;;;;;0.73;0.63;;;;;;;3.77;100.00;99837.94;5111084;28;20777;-63
2023/01/15 00:06:53;;;;;;;0.30;0.30;;;;;;;3.78;100.00;99838.78;5111054;28;20436;-63
2023/01/15 00:09:20;;;;;;;0.57;0.57;;;;;;;3.80;100.00;99835.31;5110713;28;20232;-63
2023/01/15 00:11:47;;;;;;;0.27;0.23;;;;;;;3.71;100.00;99830.56;5111116;28;20217;-63
2023/01/15 00:14:13;;;;;;;1.20;1.03;;;;;;;3.72;100.00;99839.78;5111170;28;20217;-63
2023/01/15 00:16:40;;;;;;;1.97;1.03;;;;;;;3.84;100.00;99838.59;5111160;28;20197;-63
2023/01/15 00:19:11;;;;;;;0.53;0.53;;;;;;;3.68;100.00;99833.19;5110893;28;20217;-63
2023/01/15 00:21:38;;;;;;;1.00;0.93;;;;;;;3.70;100.00;99839.03;5110617;28;20205;-61
2023/01/15 00:29:39;;;;;;;0.53;0.53;;;;;;;3.59;100.00;99828.44;5110634;28;20247;-61
2023/01/15 00:32:08;;;;;;;0.30;0.30;;;;;;;3.64;100.00;99829.13;5110446;28;20194;-61
2023/01/15 00:34:36;;;;;;;1.50;0.80;;;;;;;3.59;100.00;99820.84;5110380;28;20217;-63
2023/01/15 00:37:03;;;;;;;0.50;0.50;;;;;;;3.54;100.00;99815.09;5110512;28;20219;-61
2023/01/15 00:39:30;;;;;;;0.80;0.80;;;;;;;3.69;100.00;99819.66;5110397;28;20306;-61
2023/01/15 00:41:57;;;;;;;0.43;0.43;;;;;;;3.65;100.00;99808.00;5110816;28;20205;-61
2023/01/15 00:44:24;;;;;;;0.90;0.90;;;;;;;3.54;100.00;99815.94;5110223;28;20229;-61
2023/01/15 00:46:51;;;;;;;0.73;0.50;;;;;;;3.63;100.00;99817.34;5110362;28;20205;-62
2023/01/15 00:49:18;;;;;;;0.83;0.83;;;;;;;3.78;100.00;99823.59;5110221;28;20225;-63
2023/01/15 00:51:48;;;;;;;1.87;1.00;;;;;;;3.73;100.00;99822.94;5110085;28;20197;-63
2023/01/15 00:54:15;;;;;;;0.83;0.83;;;;;;;3.66;100.00;99819.75;5110247;28;20213;-63
2023/01/15 00:56:42;;;;;;;0.67;0.67;;;;;;;3.68;100.00;99818.03;5110174;28;20217;-61
2023/01/15 00:59:09;;;;;;;0.50;0.50;;;;;;;3.69;100.00;99812.06;5110065;28;20228;-61
2023/01/15 01:01:36;;;;;;;1.23;0.43;;;;;;;3.59;100.00;99806.50;5110112;28;20201;-61
2023/01/15 01:04:03;;;;;;;0.93;0.90;;;;;;;3.61;100.00;99801.41;5110254;28;20591;-61
2023/01/15 01:06:30;;;;;;;0.73;0.73;;;;;;;3.37;100.00;99798.78;5110319;28;20201;-61
2023/01/15 01:08:58;;;;;;;0.50;0.50;;;;;;;3.51;100.00;99800.03;5110100;28;20517;-61
2023/01/15 01:11:27;;;;;;;1.00;0.90;;;;;;;3.59;100.00;99803.16;5110105;28;20259;-60
2023/01/15 01:13:55;;;;;;;0.77;0.77;;;;;;;3.70;100.00;99811.22;5110336;28;20226;-61
2023/01/15 01:16:29;;;;;;;0.53;0.43;;;;;;;3.79;100.00;99815.97;5109844;28;20205;-61
2023/01/15 01:18:57;;;;;;;0.63;0.63;;;;;;;3.77;100.00;99819.44;5110328;28;20220;-61
2023/01/15 01:21:24;;;;;;;1.20;0.80;;;;;;;3.73;100.00;99811.13;5109695;28;20266;-61
2023/01/15 01:23:51;;;;;;;1.23;1.13;;;;;;;3.76;100.00;99811.03;5110002;28;20243;-63
2023/01/15 01:26:19;;;;;;;1.37;1.10;;;;;;;3.73;100.00;99806.06;5109988;28;20216;-63
2023/01/15 01:28:49;;;;;;;1.20;1.10;;;;;;;3.55;100.00;99796.53;5109806;28;20229;-63
2023/01/15 01:31:17;;;;;;;1.93;1.77;;;;;;;3.37;100.00;99788.69;5109654;28;20242;-61
2023/01/15 01:33:44;;;;;;;1.37;1.27;;;;;;;3.34;100.00;99788.75;5109567;28;20225;-61
2023/01/15 01:36:11;;;;;;;1.37;1.27;;;;;;;3.27;100.00;99782.25;5109814;28;20665;-63
2023/01/15 01:38:38;;;;;;;1.63;1.10;;;;;;;3.17;100.00;99785.91;5109503;28;20220;-61
2023/01/15 01:41:05;;;;;;;1.00;1.00;;;;;;;2.99;100.00;99771.31;5109621;28;20211;-61
2023/01/15 01:43:53;;;;;;;1.63;1.37;;;;;;;2.85;100.00;99765.00;5109515;28;20251;-61
2023/01/15 01:46:20;;;;;;;0.70;0.43;;;;;;;2.85;100.00;99754.06;5109690;28;20197;-61
2023/01/15 01:48:49;;;;;;;0.90;0.90;;;;;;;2.82;100.00;99762.56;5109459;28;20607;-61
2023/01/15 01:51:16;;;;;;;1.13;0.80;;;;;;;3.05;100.00;99758.50;5109687;28;20201;-61
2023/01/15 01:53:44;;;;;;;2.40;0.80;;;;;;;3.15;100.00;99753.13;5109376;28;20727;-60
2023/01/15 01:56:11;;;;;;;1.77;1.37;;;;;;;3.28;100.00;99747.69;5109492;28;20217;-61
2023/01/15 01:58:39;;;;;;;1.00;0.83;;;;;;;3.36;100.00;99749.09;5113180;28;20278;-61
2023/01/15 02:01:06;;;;;;;0.77;0.70;;;;;;;3.36;100.00;99750.78;5113576;28;20205;-63
2023/01/15 02:03:37;;;;;;;0.80;0.80;;;;;;;3.37;100.00;99760.88;5113633;28;20713;-63
2023/01/15 02:06:07;;;;;;;1.03;1.03;;;;;;;3.45;100.00;99759.78;5113447;28;20215;-61
2023/01/15 02:08:38;;;;;;;1.47;1.20;;;;;;;3.51;100.00;99759.59;5113188;28;20727;-61
2023/01/15 02:11:06;;;;;;;2.40;1.60;;;;;;;3.59;100.00;99762.69;5113710;28;20701;-63
2023/01/15 02:13:37;;;;;;;0.40;0.40;;;;;;;3.61;100.00;99771.06;5113236;28;20213;-61
2023/01/15 02:16:09;;;;;;;1.40;1.20;;;;;;;3.66;100.00;99773.44;5113496;28;20303;-61
2023/01/15 02:18:43;;;;;;;0.70;0.70;;;;;;;3.68;100.00;99771.69;5113229;28;20274;-60
2023/01/15 02:21:20;;;;;;;1.30;0.97;;;;;;;3.60;100.00;99774.44;5113108;28;20272;-60
2023/01/15 02:24:09;;;;;;;1.03;0.93;;;;;;;3.50;100.00;99773.13;5113357;28;20228;-63
2023/01/15 02:27:13;;;;;;;0.93;0.93;;;;;;;3.53;100.00;99767.97;5113240;27;20194;-61
2023/01/15 02:29:49;;;;;;;3.23;1.60;;;;;;;3.46;100.00;99766.47;5092204;28;20225;-61
2023/01/15 02:32:25;;;;;;;0.50;0.50;;;;;;;3.22;100.00;99771.44;5113022;28;20197;-63
2023/01/15 02:34:55;;;;;;;1.30;1.20;;;;;;;3.24;100.00;99762.13;5113214;28;20967;-63
2023/01/15 02:37:26;;;;;;;0.80;0.80;;;;;;;3.19;100.00;99763.97;5112931;28;20213;-61
2023/01/15 02:39:56;;;;;;;1.33;1.10;;;;;;;3.16;100.00;99748.91;5113184;28;20697;-61
2023/01/15 02:42:27;;;;;;;1.73;1.63;;;;;;;3.24;100.00;99752.00;5112617;28;20435;-63
2023/01/15 02:44:57;;;;;;;0.83;0.70;;;;;;;3.22;100.00;99753.75;5112800;28;20251;-61
2023/01/15 02:47:27;;;;;;;1.37;1.27;;;;;;;3.28;100.00;99756.09;5112573;28;20689;-61
2023/01/15 02:49:58;;;;;;;1.17;0.80;;;;;;;3.29;100.00;99755.22;5112500;28;20233;-63
2023/01/15 02:52:29;;;;;;;1.17;0.97;;;;;;;3.22;100.00;99758.00;5112616;28;20217;-63
2023/01/15 02:55:03;;;;;;;0.97;0.97;;;;;;;3.23;100.00;99755.44;5112546;28;20260;-63
2023/01/15 02:57:36;;;;;;;2.67;1.03;;;;;;;3.03;100.00;99760.28;5112481;27;20220;-63
2023/01/15 03:00:10;;;;;;;1.27;1.17;;;;;;;3.19;100.00;99751.31;5112643;28;20287;-61
2023/01/15 03:02:42;;;;;;;0.57;0.57;;;;;;;3.15;100.00;99747.25;5112447;28;20204;-61
2023/01/15 03:05:14;;;;;;;2.17;1.80;;;;;;;3.18;100.00;99744.63;5112490;28;20229;-61
2023/01/15 03:07:46;;;;;;;0.87;0.87;;;;;;;3.12;100.00;99748.16;5111945;28;20197;-63
2023/01/15 03:10:13;;;;;;;0.90;0.90;;;;;;;3.15;100.00;99742.19;5112114;28;20239;-61
2023/01/15 03:13:02;;;;;;;3.70;2.17;;;;;;;3.08;100.00;99745.78;5111964;28;20189;-61
2023/01/15 03:18:26;;;;;;;2.87;1.67;;;;;;;3.22;100.00;99748.69;5112081;28;20220;-61
2023/01/15 03:21:00;;;;;;;1.27;1.10;;;;;;;3.18;100.00;99742.09;5112139;28;20197;-63
2023/01/15 03:23:28;;;;;;;1.43;1.37;;;;;;;3.23;100.00;99745.31;5111859;27;20213;-63
2023/01/15 03:25:55;;;;;;;1.33;1.23;;;;;;;3.23;100.00;99737.75;5112049;28;20210;-63
2023/01/15 03:28:27;;;;;;;1.60;0.90;;;;;;;3.25;100.00;99748.59;5111827;28;20218;-63
2023/01/15 03:30:54;;;;;;;2.17;1.07;;;;;;;3.27;100.00;99741.81;5111739;28;20237;-63
2023/01/15 03:33:21;;;;;;;1.00;0.90;;;;;;;3.22;100.00;99728.47;5111688;28;20642;-61
2023/01/15 03:35:51;;;;;;;0.83;0.83;;;;;;;3.27;100.00;99736.75;5111736;28;20205;-61
2023/01/15 03:38:20;;;;;;;0.70;0.60;;;;;;;3.32;100.00;99739.97;5111402;28;20328;-61
2023/01/15 03:40:56;;;;;;;1.50;1.13;;;;;;;3.16;100.00;99739.59;5111563;28;20208;-61
2023/01/15 03:43:43;;;;;;;0.80;0.77;;;;;;;3.08;100.00;99739.00;5111552;27;20228;-63
2023/01/15 03:46:33;;;;;;;0.50;0.33;;;;;;;3.10;100.00;99744.03;5111366;28;20209;-61
2023/01/15 03:49:07;;;;;;;0.87;0.87;;;;;;;3.23;100.00;99740.25;5111384;28;20214;-61
2023/01/15 03:51:41;;;;;;;0.50;0.50;;;;;;;3.32;100.00;99742.50;5111638;28;20209;-63
2023/01/15 03:54:15;;;;;;;0.60;0.50;;;;;;;3.36;100.00;99746.56;5111178;28;20213;-63
2023/01/15 03:56:54;;;;;;;0.80;0.73;;;;;;;3.37;100.00;99750.75;5111650;28;20197;-63
2023/01/15 03:59:29;;;;;;;1.57;0.73;;;;;;;3.51;100.00;99749.47;5111053;28;20228;-63
2023/01/15 04:01:57;;;;;;;0.97;0.90;;;;;;;3.48;100.00;99744.53;5111300;28;20207;-63
2023/01/15 04:04:27;;;;;;;0.73;0.73;;;;;;;3.50;100.00;99752.88;5111409;28;20701;-63
2023/01/15 04:06:55;;;;;;;2.13;0.70;;;;;;;3.44;100.00;99760.69;5111122;28;21170;-63
2023/01/15 04:09:23;;;;;;;1.53;1.43;;;;;;;3.53;100.00;99762.91;5110816;28;20221;-61
2023/01/15 04:11:50;;;;;;;0.73;0.73;;;;;;;3.59;100.00;99753.41;5110990;28;20261;-61
2023/01/15 04:14:17;;;;;;;0.43;0.43;;;;;;;3.68;100.00;99757.34;5110723;28;20244;-61
2023/01/15 04:16:45;;;;;;;3.87;1.30;;;;;;;3.62;100.00;99752.47;5110905;28;20702;-61
2023/01/15 04:19:12;;;;;;;0.50;0.50;;;;;;;3.58;100.00;99761.06;5110678;28;20224;-61
2023/01/15 04:21:39;;;;;;;1.70;0.97;;;;;;;3.55;100.00;99756.91;5110404;28;20197;-61
2023/01/15 04:24:06;;;;;;;1.93;1.03;;;;;;;3.60;100.00;99765.16;5110809;28;20213;-63
2023/01/15 04:26:33;;;;;;;1.33;1.13;;;;;;;3.67;100.00;99753.16;5111130;28;20201;-63
2023/01/15 04:29:00;;;;;;;0.77;0.77;;;;;;;3.63;100.00;99760.00;5110730;28;20217;-63
2023/01/15 04:31:27;;;;;;;1.60;0.93;;;;;;;3.61;100.00;99750.84;5110898;28;20247;-63
2023/01/15 04:33:55;;;;;;;1.10;1.03;;;;;;;3.67;100.00;99760.75;5110488;28;20240;-63
2023/01/15 04:36:22;;;;;;;1.33;1.23;;;;;;;3.65;100.00;99759.97;5110548;28;20201;-63
2023/01/15 04:38:48;;;;;;;2.63;0.90;;;;;;;3.69;100.00;99764.03;5110414;28;20454;-61
2023/01/15 04:44:08;;;;;;;1.10;1.00;;;;;;;3.82;100.00;99774.59;5110504;28;20354;-61
2023/01/15 04:46:37;;;;;;;1.53;0.90;;;;;;;3.67;100.00;99770.03;5110573;28;20197;-61
2023/01/15 04:49:08;;;;;;;0.70;0.70;;;;;;;3.42;100.00;99770.81;5110452;28;20598;-61
2023/01/15 04:51:36;;;;;;;2.77;1.20;;;;;;;3.60;100.00;99767.69;5110347;28;20228;-61
2023/01/15 04:54:04;;;;;;;1.27;1.13;;;;;;;3.68;100.00;99762.38;5110603;28;20221;-61
2023/01/15 04:56:31;;;;;;;0.70;0.70;;;;;;;3.51;100.00;99765.47;5110369;28;20205;-61
2023/01/15 04:59:01;;;;;;;0.33;0.33;;;;;;;3.61;100.00;99766.00;5110466;28;20217;-61
2023/01/15 05:01:28;;;;;;;1.97;1.57;;;;;;;3.63;100.00;99761.72;5110402;28;20254;-61
2023/01/15 05:03:57;;;;;;;0.93;0.93;;;;;;;3.53;100.00;99765.44;5109956;28;20630;-61
2023/01/15 05:06:25;;;;;;;1.73;1.63;;;;;;;3.59;100.00;99762.69;5110300;28;20206;-63
2023/01/15 05:08:53;;;;;;;1.10;0.60;;;;;;;3.59;100.00;99762.69;5109795;28;20213;-63
2023/01/15 05:11:20;;;;;;;0.40;0.40;;;;;;;3.61;100.00;99761.78;5109964;28;20708;-61
2023/01/15 05:13:47;;;;;;;1.27;1.00;;;;;;;3.46;100.00;99764.81;5109879;28;20220;-60
2023/01/15 05:16:16;;;;;;;1.60;0.93;;;;;;;3.59;100.00;99763.50;5110094;28;20202;-61
2023/01/15 05:18:44;;;;;;;1.03;0.77;;;;;;;3.50;100.00;99765.53;5109819;28;20214;-61
2023/01/15 05:21:17;;;;;;;1.93;0.90;;;;;;;3.51;100.00;99754.53;5109748;28;20209;-61
2023/01/15 05:23:45;;;;;;;1.13;0.80;;;;;;;3.47;100.00;99758.88;5109908;28;20270;-63
2023/01/15 05:26:12;;;;;;;0.70;0.70;;;;;;;3.65;100.00;99756.63;5109888;28;20201;-61
2023/01/15 05:28:40;;;;;;;5.47;2.47;;;;;;;3.54;100.00;99756.97;5109944;28;20212;-63
2023/01/15 05:31:08;;;;;;;2.13;1.87;;;;;;;3.51;100.00;99759.59;5109647;28;20225;-61
2023/01/15 05:33:36;;;;;;;0.60;0.60;;;;;;;3.46;100.00;99756.38;5113444;28;20217;-61
2023/01/15 05:36:04;;;;;;;1.67;1.57;;;;;;;3.33;100.00;99761.81;5114055;28;20208;-63
2023/01/15 05:38:31;;;;;;;1.17;0.87;;;;;;;3.29;100.00;99755.22;5113778;28;20224;-63
2023/01/15 05:41:02;;;;;;;2.50;1.27;;;;;;;3.30;100.00;99754.34;5114072;28;20205;-63
2023/01/15 05:43:30;;;;;;;1.67;1.50;;;;;;;3.35;100.00;99754.22;5113794;28;20221;-63
2023/01/15 05:46:01;;;;;;;0.70;0.70;;;;;;;3.35;100.00;99749.97;5114400;28;20240;-63
2023/01/15 05:48:28;;;;;;;1.20;1.10;;;;;;;3.11;100.00;99753.25;5113897;28;20697;-63
2023/01/15 05:50:55;;;;;;;1.60;1.27;;;;;;;3.32;100.00;99754.31;5113868;28;20228;-62
2023/01/15 05:53:22;;;;;;;1.43;1.33;;;;;;;3.21;100.00;99747.06;5113415;28;20201;-61
2023/01/15 05:55:49;;;;;;;0.70;0.70;;;;;;;3.16;100.00;99746.38;5113739;28;20197;-61
2023/01/15 05:58:17;;;;;;;3.13;2.00;;;;;;;3.16;100.00;99749.72;5113433;28;20657;-61
2023/01/15 06:00:44;;;;;;;1.37;1.23;;;;;;;3.23;100.00;99742.78;5113837;28;20197;-61
2023/01/15 06:03:11;;;;;;;3.03;1.03;;;;;;;3.31;100.00;99753.47;5113698;28;20197;-63
2023/01/15 06:05:37;;;;;;;2.10;1.77;;;;;;;3.23;100.00;99750.38;5113667;28;20203;-63
2023/01/15 06:08:05;;;;;;;1.13;1.00;;;;;;;3.25;100.00;99748.59;5113258;28;20193;-63
2023/01/15 06:10:32;;;;;;;3.40;1.77;;;;;;;3.39;100.00;99746.47;5113638;28;20236;-61
2023/01/15 06:12:58;;;;;;;0.50;0.50;;;;;;;3.44;100.00;99748.84;5113313;28;20591;-61
2023/01/15 06:15:27;;;;;;;6.47;2.10;;;;;;;3.14;100.00;99755.69;5113385;28;20705;-63
2023/01/15 06:17:54;;;;;;;3.47;1.77;;;;;;;3.33;100.00;99751.72;5113178;28;20610;-61
2023/01/15 06:20:21;;;;;;;0.90;0.90;;;;;;;3.42;100.00;99754.84;5113051;28;20232;-63
2023/01/15 06:22:49;;;;;;;2.40;1.07;;;;;;;3.50;100.00;99761.28;5112940;28;20201;-63
2023/01/15 06:25:16;;;;;;;1.70;0.83;;;;;;;3.47;100.00;99753.00;5112943;28;20225;-63
2023/01/15 06:27:43;;;;;;;2.33;2.17;;;;;;;3.50;100.00;99763.00;5113064;28;20280;-61
2023/01/15 06:30:11;;;;;;;1.87;1.73;;;;;;;3.63;100.00;99759.19;5112813;28;20221;-61
2023/01/15 06:32:39;;;;;;;1.40;1.30;;;;;;;3.64;100.00;99760.84;5112744;28;20198;-61
2023/01/15 06:35:07;;;;;;;1.33;1.10;;;;;;;3.52;100.00;99759.56;5112857;28;20228;-63
2023/01/15 06:37:34;;;;;;;1.70;1.27;;;;;;;3.57;100.00;99760.19;5112858;28;20197;-61
2023/01/15 06:40:01;;;;;;;1.40;1.10;;;;;;;3.61;100.00;99753.38;5112824;28;20225;-61
2023/01/15 06:47:59;;;;;;;1.47;1.00;;;;;;;3.62;100.00;99767.66;5112706;28;20200;-63
2023/01/15 06:50:26;;;;;;;0.40;0.40;;;;;;;3.62;100.00;99772.72;5112585;28;20233;-63
2023/01/15 06:52:52;;;;;;;0.90;0.90;;;;;;;3.72;100.00;99763.94;5112329;28;20197;-63
2023/01/15 06:55:19;;;;;;;1.47;1.37;;;;;;;3.77;100.00;99767.13;5112770;28;20217;-63
2023/01/15 06:57:46;;;;;;;5.93;1.43;;;;;;;3.82;100.00;99764.47;5112200;28;20243;-63
2023/01/15 07:00:14;;;;;;;1.30;0.87;;;;;;;3.85;100.00;99770.25;5112396;28;20221;-61
2023/01/15 07:02:41;;;;;;;1.30;1.13;;;;;;;3.93;100.00;99769.16;5112400;28;20209;-61
2023/01/15 07:05:10;;;;;;;1.67;1.40;;;;;;;3.98;100.00;99769.81;5112136;28;20217;-63
2023/01/15 07:07:36;;;;;;;0.80;0.60;;;;;;;4.03;100.00;99768.78;5112031;28;20208;-63
2023/01/15 07:10:04;;;;;;;1.03;0.83;;;;;;;4.08;100.00;99763.56;5112156;28;20224;-61
2023/01/15 07:12:30;;;;;;;2.20;1.87;;;;;;;4.04;100.00;99764.53;5112206;28;20224;-63
2023/01/15 07:14:57;;;;;;;2.13;0.73;;;;;;;4.10;100.00;99771.91;5112018;28;20219;-64
2023/01/15 07:17:24;;;;;;;1.10;1.07;;;;;;;4.22;100.00;99761.38;5112184;27;20204;-64
2023/01/15 07:19:51;;;;;;;1.37;1.27;;;;;;;4.13;100.00;99764.25;5112281;27;20452;-64
2023/01/15 07:22:19;;;;;;;0.90;0.77;;;;;;;4.35;100.00;99773.59;5111855;28;20212;-62
2023/01/15 07:24:46;;;;;;;0.87;0.87;;;;;;;4.34;100.00;99771.97;5112134;28;20225;-62
2023/01/15 07:27:13;;;;;;;2.53;0.60;;;;;;;4.36;100.00;99772.72;5111993;28;20197;-62
2023/01/15 07:29:40;;;;;;;1.43;1.33;;;;;;;4.45;100.00;99774.91;5111970;28;20213;-61
2023/01/15 07:32:06;;;;;;;0.93;0.93;;;;;;;4.45;100.00;99770.69;5111584;28;20232;-63
2023/01/15 07:34:33;;;;;;;1.50;0.90;;;;;;;4.39;100.00;99775.13;5111805;28;20700;-63
2023/01/15 07:37:00;;;;;;;1.03;0.73;;;;;;;4.59;100.00;99769.34;5111952;28;20201;-63
2023/01/15 07:39:30;;;;;;;3.90;1.37;;;;;;;4.75;100.00;99768.75;5112072;28;20217;-64
2023/01/15 07:50:14;;;;;;;1.30;1.20;;;;;;;5.23;100.00;99782.13;5111406;28;20224;-61
2023/01/15 07:52:41;;;;;;;1.27;1.17;;;;;;;5.29;100.00;99789.47;5111255;28;20709;-61
2023/01/15 07:55:11;;;;;;;2.90;1.70;;;;;;;5.37;100.00;99786.66;5110358;28;20224;-63
2023/01/15 07:57:38;;;;;;;3.17;2.57;;;;;;;5.30;100.00;99785.25;5111300;28;20578;-63
2023/01/15 08:00:07;;;;;;;0.83;0.83;;;;;;;5.47;100.00;99782.88;5111193;28;20221;-61
2023/01/15 08:02:34;;;;;;;2.70;1.70;;;;;;;5.45;100.00;99789.72;5111069;28;20697;-61
2023/01/15 08:05:01;;;;;;;1.27;1.17;;;;;;;5.50;100.00;99782.75;5111310;28;20217;-63
2023/01/15 08:07:28;;;;;;;1.93;1.17;;;;;;;5.65;100.00;99781.31;5111114;28;20202;-61
2023/01/15 08:09:54;;;;;;;0.93;0.60;;;;;;;5.81;100.00;99781.47;5111431;28;20220;-61
2023/01/15 08:15:16;;;;;;;2.07;1.67;;;;;;;6.23;100.00;99783.16;5110945;28;20220;-61
2023/01/15 08:17:45;;;;;;;0.77;0.60;;;;;;;6.61;100.00;99803.50;5110598;28;20227;-63
2023/01/15 08:20:14;;;;;;;1.40;1.30;;;;;;;7.06;100.00;99797.22;5110771;28;20228;-63
2023/01/15 08:22:41;;;;;;;0.90;0.90;;;;;;;7.18;100.00;99800.00;5110586;28;20197;-63
2023/01/15 08:25:10;;;;;;;2.57;1.50;;;;;;;6.26;100.00;99796.53;5110592;28;20221;-63
2023/01/15 08:27:39;;;;;;;5.03;1.23;;;;;;;7.00;100.00;99796.59;5110625;28;20204;-61
2023/01/15 08:30:09;;;;;;;1.40;1.30;;;;;;;6.31;100.00;99792.09;5110843;28;20217;-61
2023/01/15 08:32:35;;;;;;;2.83;1.87;;;;;;;6.20;100.00;99793.44;5110284;28;20225;-63
2023/01/15 08:35:02;;;;;;;1.00;0.90;;;;;;;6.45;100.00;99788.09;5110614;28;20255;-63
2023/01/15 08:37:29;;;;;;;3.30;1.93;;;;;;;6.66;100.00;99786.31;5110859;27;20197;-61
2023/01/15 08:39:56;;;;;;;0.33;0.33;;;;;;;6.77;100.00;99784.94;5111008;28;20625;-61
2023/01/15 08:42:23;;;;;;;2.93;1.37;;;;;;;6.81;100.00;99780.56;5110675;28;20707;-63
2023/01/15 08:44:51;;;;;;;0.90;0.90;;;;;;;6.61;100.00;99778.09;5110214;28;20221;-63
2023/01/15 08:47:18;;;;;;;3.67;2.03;;;;;;;6.45;100.00;99781.28;5110330;28;20723;-63
2023/01/15 08:49:47;;;;;;;1.40;1.30;;;;;;;6.81;100.00;99775.47;5110220;28;20227;-61
2023/01/15 08:52:14;;;;;;;1.73;1.57;;;;;;;7.00;100.00;99781.34;5110318;28;20233;-62
2023/01/15 08:54:41;;;;;;;1.60;1.33;;;;;;;7.63;100.00;99785.19;5110579;27;20223;-61
2023/01/15 08:57:08;;;;;;;1.97;0.93;;;;;;;7.92;99.86;99788.84;5110165;28;20764;-63
2023/01/15 08:59:35;;;;;;;1.30;1.20;;;;;;;8.39;95.64;99788.97;5110285;28;20221;-63
2023/01/15 09:02:03;;;;;;;1.53;1.20;;;;;;;8.78;95.37;99787.75;5110471;28;20208;-63
2023/01/15 09:04:30;;;;;;;1.50;1.40;;;;;;;9.11;91.56;99789.41;5110211;28;20228;-64
2023/01/15 09:06:57;;;;;;;2.17;1.60;;;;;;;9.35;91.51;99783.84;5110122;28;20692;-63
2023/01/15 09:09:24;;;;;;;1.40;1.30;;;;;;;9.83;88.28;99781.97;5109986;28;20217;-62
2023/01/15 09:11:51;;;;;;;1.30;0.97;;;;;;;9.15;83.81;99774.75;5109961;28;20229;-62
2023/01/15 09:14:18;;;;;;;1.00;0.83;;;;;;;9.62;88.19;99764.41;5109986;28;20217;-63
2023/01/15 09:16:44;;;;;;;2.53;1.53;;;;;;;9.79;86.19;99760.06;5110347;28;20689;-64
2023/01/15 09:19:13;;;;;;;1.23;1.13;;;;;;;9.95;84.39;99763.38;5109680;28;20224;-64
2023/01/15 09:21:39;;;;;;;3.20;2.47;;;;;;;10.05;78.64;99761.91;5110123;28;20220;-64
2023/01/15 09:24:07;;;;;;;3.23;1.67;;;;;;;9.95;80.34;99755.72;5109850;28;20213;-62
2023/01/15 09:26:36;;;;;;;2.43;1.73;;;;;;;8.89;84.23;99754.03;5110078;28;20209;-62
2023/01/15 09:29:04;;;;;;;0.57;0.57;;;;;;;9.14;86.74;99750.97;5109996;28;20235;-62
2023/01/15 09:31:31;;;;;;;2.57;1.30;;;;;;;9.42;83.07;99751.97;5109912;28;20233;-63
2023/01/15 09:33:58;;;;;;;1.43;1.17;;;;;;;9.30;83.64;99739.00;5109878;28;20216;-64
2023/01/15 09:36:29;;;;;;;4.43;1.40;;;;;;;9.60;82.02;99735.63;5110119;28;20201;-62
2023/01/15 09:38:56;;;;;;;3.37;1.73;;;;;;;9.38;83.19;99730.09;5109828;28;20221;-62
2023/01/15 09:44:26;;;;;;;1.30;0.97;;;;;;;9.68;81.26;99720.66;5109447;28;20215;-64
2023/01/15 09:47:03;;;;;;;2.47;1.43;;;;;;;9.13;81.94;99726.34;5109738;28;20205;-64
2023/01/15 09:49:40;;;;;;;1.57;1.47;;;;;;;9.48;82.86;99718.44;5110036;28;20273;-62
2023/01/15 09:52:15;;;;;;;3.30;1.80;;;;;;;9.70;81.49;99706.06;5109572;28;20228;-62
2023/01/15 09:54:57;;;;;;;3.90;1.03;;;;;;;9.72;80.19;99701.72;5109916;28;20219;-63
2023/01/15 09:57:25;;;;;;;2.20;1.40;;;;;;;10.29;78.26;99703.44;5109670;28;20205;-64
2023/01/15 09:59:59;;;;;;;4.20;1.10;;;;;;;11.05;72.55;99702.94;5109357;28;20842;-64
2023/01/15 10:02:32;;;;;;;1.53;1.20;;;;;;;11.80;71.75;99694.59;5109653;28;20776;-63
2023/01/15 10:05:03;;;;;;;2.07;1.40;;;;;;;12.40;67.66;99693.91;5109902;28;20217;-63
2023/01/15 10:07:39;;;;;;;2.30;1.40;;;;;;;12.09;67.33;99684.94;5109618;28;20205;-63
2023/01/15 10:10:11;;;;;;;3.97;1.60;;;;;;;12.56;69.68;99682.56;5109410;28;20230;-63
2023/01/15 10:12:39;;;;;;;4.07;2.17;;;;;;;10.75;68.49;99669.06;5109437;28;20251;-63
2023/01/15 10:15:25;;;;;;;3.57;1.80;;;;;;;10.45;74.07;99669.28;5109205;28;20229;-62
2023/01/15 10:17:55;;;;;;;1.67;1.40;;;;;;;10.67;72.84;99655.94;5109734;28;20186;-64
2023/01/15 10:20:42;;;;;;;1.13;1.00;;;;;;;10.98;74.68;99659.94;5113354;28;20621;-63
2023/01/15 10:23:32;;;;;;;3.93;1.43;;;;;;;11.02;70.70;99649.38;5113179;28;20201;-62
2023/01/15 10:26:03;;;;;;;1.90;1.80;;;;;;;10.26;74.04;99651.66;5113974;28;20201;-62
2023/01/15 10:28:31;;;;;;;0.90;0.83;;;;;;;10.48;73.86;99640.97;5113136;27;20251;-64
2023/01/15 10:31:06;;;;;;;2.53;1.27;;;;;;;8.93;77.34;99637.38;5113378;28;20197;-64
2023/01/15 10:34:01;;;;;;;2.93;1.27;;;;;;;9.34;78.87;99636.75;5113154;28;20229;-63
2023/01/15 10:36:34;;;;;;;1.57;1.10;;;;;;;8.84;80.46;99624.28;5106230;28;20702;-62
2023/01/15 10:39:14;;;;;;;0.80;0.80;;;;;;;8.80;83.64;99625.34;5113180;28;20229;-62
2023/01/15 10:41:52;;;;;;;1.53;1.17;;;;;;;8.81;81.66;99629.56;5112436;28;20661;-61
2023/01/15 10:44:26;;;;;;;1.17;1.07;;;;;;;8.52;84.32;99617.59;5112088;28;20228;-62
2023/01/15 10:46:58;;;;;;;1.30;1.20;;;;;;;8.36;88.44;99613.31;5112348;28;20205;-63
2023/01/15 10:49:28;;;;;;;2.23;1.60;;;;;;;8.38;95.75;99608.13;5112867;28;20217;-64
2023/01/15 10:51:58;;;;;;;3.03;2.07;;;;;;;8.16;96.25;99603.38;5112866;28;20240;-64
2023/01/15 10:54:34;;;;;;;2.07;1.60;;;;;;;8.08;97.58;99602.97;5112695;28;20221;-64
2023/01/15 10:57:10;;;;;;;2.57;1.33;;;;;;;7.81;100.00;99595.88;5112520;28;20197;-64
2023/01/15 10:59:45;;;;;;;1.60;1.50;;;;;;;8.29;100.00;99596.72;5112682;28;20702;-63
2023/01/15 11:02:23;;;;;;;2.70;2.13;;;;;;;8.01;100.00;99592.28;5112805;28;20207;-64
2023/01/15 11:04:50;;;;;;;2.63;2.10;;;;;;;8.30;99.77;99585.63;5112374;28;20221;-64
2023/01/15 11:07:18;;;;;;;1.77;1.27;;;;;;;8.13;99.82;99585.72;5112407;28;20216;-65
2023/01/15 11:09:47;;;;;;;2.53;2.00;;;;;;;8.34;99.07;99587.06;5112128;28;20213;-64
2023/01/15 11:21:01;;;;;;;1.33;1.10;;;;;;;8.14;98.81;99566.97;5112287;28;20208;-64
2023/01/15 11:23:28;;;;;;;1.20;1.10;;;;;;;7.83;99.01;99573.72;5112061;28;20617;-64
2023/01/15 11:25:58;;;;;;;1.77;1.37;;;;;;;7.74;100.00;99569.13;5112493;28;20212;-61
2023/01/15 11:28:34;;;;;;;2.43;1.20;;;;;;;8.32;100.00;99560.88;5111972;28;20217;-62
2023/01/15 11:31:01;;;;;;;0.87;0.70;;;;;;;8.25;98.68;99564.66;5112094;28;20276;-61
2023/01/15 11:33:30;;;;;;;1.83;1.53;;;;;;;8.33;100.00;99562.53;5111779;28;20721;-61
2023/01/15 11:36:01;;;;;;;1.73;1.50;;;;;;;7.95;100.00;99556.97;5111988;28;20201;-61
2023/01/15 11:38:30;;;;;;;1.97;1.60;;;;;;;8.18;100.00;99547.28;5111991;28;20304;-64
2023/01/15 11:41:00;;;;;;;2.20;2.00;;;;;;;8.68;97.42;99547.00;5111955;28;20217;-64
2023/01/15 11:51:57;;;;;;;1.53;1.13;;;;;;;9.26;94.65;99538.50;5111550;28;20282;-64
2023/01/15 11:54:25;;;;;;;1.97;1.60;;;;;;;9.59;93.62;99539.13;5111952;28;20762;-64
2023/01/15 11:56:55;;;;;;;3.17;1.87;;;;;;;9.42;92.63;99532.47;5111705;28;20277;-64
2023/01/15 11:59:22;;;;;;;5.17;1.67;;;;;;;8.61;92.85;99530.44;5111071;27;20778;-64
2023/01/15 12:01:58;;;;;;;2.07;1.17;;;;;;;9.38;94.49;99525.94;5111536;28;20205;-62
2023/01/15 12:04:38;;;;;;;2.20;1.83;;;;;;;9.97;80.33;99534.19;5110550;28;20221;-61
2023/01/15 12:07:12;;;;;;;1.33;1.17;;;;;;;9.96;74.92;99532.56;5111367;28;20209;-63
2023/01/15 12:10:05;;;;;;;1.80;1.70;;;;;;;9.94;77.66;99529.28;5111215;28;20302;-64
2023/01/15 12:12:47;;;;;;;2.20;2.00;;;;;;;9.73;81.06;99519.50;5111436;28;20235;-64
2023/01/15 12:15:33;;;;;;;1.80;1.47;;;;;;;9.23;84.64;99520.84;5110635;28;20631;-61
2023/01/15 12:18:18;;;;;;;1.80;1.13;;;;;;;9.43;80.38;99521.38;5111451;28;20197;-61
2023/01/15 12:21:00;;;;;;;2.23;1.43;;;;;;;9.12;80.43;99519.84;5110967;28;20240;-64
2023/01/15 12:23:45;;;;;;;2.67;1.50;;;;;;;8.72;83.15;99507.69;5110886;28;20220;-64
2023/01/15 12:26:21;;;;;;;2.97;1.63;;;;;;;9.58;78.88;99502.56;5111027;28;20193;-64
2023/01/15 12:28:57;;;;;;;2.73;2.20;;;;;;;8.89;81.01;99500.78;5110918;28;20217;-64
2023/01/15 12:31:29;;;;;;;4.47;1.10;;;;;;;9.63;80.76;99499.72;5110882;28;20201;-64
2023/01/15 12:34:01;;;;;;;2.27;1.67;;;;;;;9.39;79.10;99500.31;5110746;28;20237;-64
2023/01/15 12:36:33;;;;;;;3.23;1.80;;;;;;;9.18;77.97;99489.66;5110883;28;20197;-64